METAR Data
IDs: Format: Raw Decoded Include TAF

Data at: 1715 UTC 21 Sep 2018

KLNC 211655Z AUTO 16005KT 7SM DZ SCT021 BKN036 OVC110 27/24 A2999 RMK AO2 P0001 T02650244
KLNC 211635Z AUTO 16007KT 10SM SCT055 SCT075 BKN110 27/24 A2999 RMK AO2 T02690244
KLNC 211615Z AUTO 16005KT 10SM -RA SCT025 BKN070 OVC100 26/24 A2999 RMK AO2 T02620242
KLNC 211555Z AUTO 15006KT 10SM SCT012 BKN100 OVC120 27/24 A2999 RMK AO2 T02650241
KLNC 211535Z AUTO 16007KT 10SM SCT015 SCT030 OVC100 26/24 A2999 RMK AO2 T02620240
KLNC 211515Z AUTO 16008KT 10SM SCT011 BKN017 OVC100 26/24 A2998 RMK AO2 T02630241
KLNC 211455Z AUTO 14006KT 10SM BKN011 OVC015 26/24 A2998 RMK AO2 T02590240
KLNC 211435Z AUTO 14005KT 10SM BKN011 OVC014 26/24 A2998 RMK AO2 T02550240
KLNC 211415Z AUTO 15007KT 10SM OVC009 26/24 A2997 RMK AO2 T02550240
KLNC 211355Z AUTO 16007KT 10SM OVC009 25/24 A2997 RMK AO2 T02530239
KLNC 211335Z AUTO 15007KT 10SM SCT006 OVC011 25/24 A2997 RMK AO2 T02500240
KLNC 211315Z AUTO 15006KT 10SM SCT006 BKN009 OVC013 25/24 A2996 RMK AO2 LTG DSNT SW T02460236
KLNC 211255Z AUTO 16005KT 10SM OVC011 24/24 A2996 RMK AO2 T02440235
KLNC 211235Z AUTO 16004KT 10SM SCT009 OVC013 24/23 A2996 RMK AO2 T02420233
KLNC 211215Z AUTO 17005KT 10SM BKN009 BKN013 OVC090 24/23 A2996 RMK AO2 T02420232
KLNC 211155Z AUTO 16006KT 10SM OVC009 24/23 A2995 RMK AO2 60004 70041 T02410231 10241 20228
KLNC 211135Z AUTO 17004KT 10SM BKN011 BKN014 OVC090 24/23 A2995 RMK AO2 T02410230
KLNC 211115Z AUTO 17004KT 10SM SCT011 BKN090 24/23 A2995 RMK AO2 T02400230
KLNC 211055Z AUTO 17004KT 10SM BKN100 24/23 A2995 RMK AO2 T02400230
KLNC 211035Z AUTO 17004KT 10SM SCT015 SCT024 OVC100 24/23 A2995 RMK AO2 T02380227
KLNC 211015Z AUTO 17004KT 10SM SCT015 BKN025 OVC100 24/23 A2995 RMK AO2 T02380227
KLNC 210955Z AUTO 16003KT 10SM SCT013 SCT023 BKN095 24/23 A2995 RMK AO2 T02390226
KLNC 210935Z AUTO 17003KT 10SM SCT070 SCT120 24/23 A2995 RMK AO2 T02400226
KLNC 210915Z AUTO 17005KT 10SM OVC080 24/22 A2995 RMK AO2 T02350222
KLNC 210855Z AUTO 16004KT 10SM OVC080 23/22 A2995 RMK AO2 60004 T02300220
KLNC 210835Z AUTO 18003KT 10SM BKN080 OVC090 23/22 A2995 RMK AO2 T02300217
KLNC 210815Z AUTO 16003KT 10SM SCT080 OVC090 23/22 A2995 RMK AO2 T02300217
KLNC 210755Z AUTO 17003KT 10SM SCT024 BKN080 OVC090 23/22 A2995 RMK AO2 T02300216
KLNC 210735Z AUTO 17004KT 10SM SCT022 SCT031 OVC080 23/22 A2995 RMK AO2 T02300217
KLNC 210715Z AUTO 16006KT 10SM SCT026 SCT047 OVC075 23/22 A2995 RMK AO2 T02300217
KLNC 210655Z AUTO 15004KT 5SM RA SCT024 SCT028 OVC075 23/22 A2995 RMK AO2 P0004 T02290217
KLNC 210635Z AUTO 17003KT 10SM OVC075 23/22 A2995 RMK AO2 T02300216
KLNC 210615Z AUTO 17003KT 10SM BKN075 OVC085 23/22 A2996 RMK AO2 T02300215
KLNC 210555Z AUTO 17003KT 10SM SCT075 OVC085 23/21 A2996 RMK AO2 T02290212 10244 20226 403320219
KLNC 210535Z AUTO 16003KT 10SM BKN080 BKN090 23/22 A2996 RMK AO2 T02300215
KLNC 210515Z AUTO 17003KT 10SM BKN090 23/21 A2997 RMK AO2 T02300213
KLNC 210455Z AUTO 18004KT 10SM SCT080 23/22 A2997 RMK AO2 T02300215
KLNC 210435Z AUTO 16004KT 10SM CLR 23/22 A2997 RMK AO2 T02300215
KLNC 210415Z AUTO 15003KT 10SM CLR 23/22 A2997 RMK AO2 T02270215
KLNC 210355Z AUTO 00000KT 10SM CLR 23/21 A2997 RMK AO2 T02270211
KLNC 210335Z AUTO 00000KT 10SM CLR 23/21 A2997 RMK AO2 T02260210
KLNC 210315Z AUTO 00000KT 10SM CLR 23/21 A2997 RMK AO2 T02270208
KLNC 210255Z AUTO 11003KT 10SM SCT060 SCT075 SCT085 23/21 A2996 RMK AO2 T02300210
KLNC 210235Z AUTO 00000KT 10SM -RA BKN060 OVC075 23/21 A2997 RMK AO2 T02310210
KLNC 210215Z AUTO 00000KT 10SM BKN080 23/21 A2996 RMK AO2 T02320209
KLNC 210155Z AUTO 00000KT 10SM SCT090 24/21 A2995 RMK AO2 T02350210
KLNC 210135Z AUTO 00000KT 10SM SCT095 23/21 A2995 RMK AO2 T02320210
KLNC 210115Z AUTO 00000KT 10SM CLR 24/21 A2994 RMK AO2 T02350212
KLNC 210055Z AUTO 00000KT 10SM CLR 24/21 A2993 RMK AO2 T02380212
KLNC 210035Z AUTO 14003KT 10SM VCTS SCT050 24/22 A2992 RMK AO2 LTG DSNT SE T02430215
KLNC 210015Z AUTO 00000KT 10SM SCT040 BKN050 BKN075 23/21 A2992 RMK AO2 LTG DSNT NE AND E T02310206
KLNC 202355Z AUTO 00000KT 10SM -VCTSRA SCT050 SCT075 SCT120 23/21 A2991 RMK AO2 LTG DSNT ALQS P0037 60037 T02320214 10332 20229
KLNC 202335Z AUTO 00000KT 10SM -TSRA SCT009 SCT031 BKN060 23/19 A2992 RMK AO2 LTG DSNT ALQS P0037 T02310190
KLNC 202315Z AUTO 19012G25KT 150V210 1 1/4SM TSRA BKN009 BKN035 OVC060 24/21 A2992 RMK AO2 LTG DSNT ALQS P0033 T02420209
KLNC 202255Z AUTO 13007KT 10SM VCTS SCT050 SCT065 SCT070 30/21 A2990 RMK AO2 LTG DSNT S T02950205
KLNC 202235Z AUTO 15006KT 10SM CLR 31/21 A2989 RMK AO2 LTG DSNT S THRU W T03130211
KLNC 202215Z AUTO 14005KT 10SM CLR 31/20 A2989 RMK AO2 LTG DSNT SE AND W T03100203
KLNC 202155Z AUTO 13006KT 10SM CLR 31/19 A2989 RMK AO2 LTG DSNT SW T03060194
KLNC 202135Z AUTO 13008KT 10SM SCT047 SCT055 31/19 A2991 RMK AO2 T03110187
KLNC 202115Z AUTO 16006KT 10SM CLR 33/21 A2991 RMK AO2 T03250207
KLNC 202055Z AUTO 18009G17KT 10SM CLR 33/20 A2991 RMK AO2 LTG DSNT SE T03280204
KLNC 202035Z AUTO 16013G17KT 10SM SCT042 33/21 A2992 RMK AO2 T03280208
KLNC 202015Z AUTO 16009G14KT 10SM SCT040 SCT050 33/22 A2992 RMK AO2 T03280215
KLNC 202000Z AUTO 19009KT 10SM SCT038 SCT060 32/21 A2993 RMK AO2 LTG DSNT S T03210214
KLNC 201935Z AUTO 20007KT 10SM SCT036 SCT042 31/22 A2994 RMK AO2 T03110218
KLNC 201915Z AUTO 20008KT 10SM SCT034 SCT042 31/22 A2995 RMK AO2 T03090221
KLNC 201855Z AUTO 19007KT 10SM BKN034 BKN042 BKN048 31/22 A2995 RMK AO2 T03060219
KLNC 201835Z AUTO 19007KT 10SM BKN034 BKN044 BKN050 31/22 A2996 RMK AO2 T03100224
KLNC 201815Z AUTO 18005KT 10SM SCT035 BKN041 BKN055 31/22 A2997 RMK AO2 T03110223
KLNC 201755Z AUTO 15011KT 10SM SCT030 BKN038 SCT047 31/22 A2997 RMK AO2 T03100223 10313 20219
KLNC 201735Z AUTO 20006KT 10SM SCT027 SCT032 BKN047 31/23 A2999 RMK AO2 T03080229
KLNC 201715Z AUTO 19008KT 10SM SCT023 SCT030 30/23 A3000 RMK AO2 T03020233
KLNC 201655Z AUTO 16006KT 10SM SCT023 SCT028 29/23 A3000 RMK AO2 T02940231
KLNC 201635Z AUTO 17007KT 10SM SCT023 30/23 A3000 RMK AO2 T02950227
KLNC 201615Z AUTO 17008KT 10SM SCT021 SCT026 29/23 A3000 RMK AO2 T02930229
KLNC 201555Z AUTO 17009KT 10SM SCT019 29/23 A3000 RMK AO2 T02890230
KLNC 201535Z AUTO 17005KT 10SM SCT017 28/23 A3000 RMK AO2 T02810229
KLNC 201515Z AUTO 17005KT 10SM CLR 28/23 A2999 RMK AO2 T02780230
KLNC 201455Z AUTO 17005KT 10SM SCT012 27/23 A2999 RMK AO2 T02710229
KLNC 201435Z AUTO 16005KT 10SM CLR 26/23 A2998 RMK AO2 T02590225
KLNC 201415Z AUTO 15005KT 10SM CLR 26/23 A2998 RMK AO2 T02600225
KLNC 201355Z AUTO 14004KT 10SM CLR 25/22 A2997 RMK AO2 T02470221
KLNC 201335Z AUTO 16004KT 10SM CLR 24/22 A2997 RMK AO2 T02400217
KLNC 201315Z AUTO 13003KT 10SM CLR 23/22 A2997 RMK AO2 T02310216
KLNC 201255Z AUTO 14003KT 10SM CLR 22/21 A2996 RMK AO2 T02220211
KLNC 201235Z AUTO 00000KT 10SM CLR 22/21 A2996 RMK AO2 T02200209
KLNC 201215Z AUTO 00000KT 10SM CLR 22/21 A2995 RMK AO2 T02210208
KLNC 201155Z AUTO 00000KT 10SM CLR 22/21 A2995 RMK AO2 T02220210 10247 20221
KLNC 201135Z AUTO 00000KT 10SM CLR 22/21 A2995 RMK AO2 T02220210
KLNC 201115Z AUTO 00000KT 10SM CLR 22/21 A2994 RMK AO2 T02210208
KLNC 201055Z AUTO 00000KT 10SM CLR 23/21 A2994 RMK AO2 T02260209
KLNC 201035Z AUTO 00000KT 10SM CLR 23/21 A2993 RMK AO2 T02280210
KLNC 201015Z AUTO 00000KT 10SM CLR 23/21 A2993 RMK AO2 T02330212
KLNC 200955Z AUTO 00000KT 10SM CLR 23/21 A2993 RMK AO2 T02320213
KLNC 200935Z AUTO 00000KT 10SM CLR 23/21 A2993 RMK AO2 T02310212
KLNC 200915Z AUTO 00000KT 10SM CLR 24/22 A2993 RMK AO2 T02350215
KLNC 200855Z AUTO 00000KT 10SM CLR 24/21 A2993 RMK AO2 T02390214
KLNC 200835Z AUTO 18003KT 10SM CLR 24/22 A2994 RMK AO2 T02400216
KLNC 200815Z AUTO 00000KT 10SM CLR 24/22 A2994 RMK AO2 T02420217
KLNC 200755Z AUTO 00000KT 10SM CLR 24/22 A2994 RMK AO2 T02420219
KLNC 200735Z AUTO 16003KT 10SM CLR 24/22 A2994 RMK AO2 T02430220
KLNC 200715Z AUTO 15004KT 10SM CLR 25/22 A2995 RMK AO2 T02450218
KLNC 200655Z AUTO 14003KT 10SM SCT050 25/22 A2995 RMK AO2 T02450215
KLNC 200635Z AUTO 15003KT 10SM SCT050 24/21 A2995 RMK AO2 T02440213
KLNC 200615Z AUTO 00000KT 10SM CLR 25/21 A2996 RMK AO2 T02450211
KLNC 200555Z AUTO 00000KT 10SM CLR 25/21 A2996 RMK AO2 T02470211 10328 20247 403470218
KLNC 200535Z AUTO 00000KT 10SM CLR 25/21 A2996 RMK AO2 T02500211